Time,TemperatureF,DewpointF,PressureIn,WindDirection,WindDirectionDegrees,WindSpeedMPH,WindSpeedGustMPH,Humidity,HourlyPrecipIn,Conditions,Clouds,dailyrainin,SoftwareType,DateUTC
2013-02-19 00:00:00,41.7,30.2,30.11,SSE,149,1.6,1.6,53,0.00,,,0.00,dv,2013-02-19 05:00:00,
2013-02-19 00:05:00,41.5,30.0,30.10,SSE,149,0.0,0.0,53,0.00,,,0.00,dv,2013-02-19 05:05:00,
2013-02-19 00:10:00,41.4,29.9,30.10,SSE,149,0.0,0.0,53,0.00,,,0.00,dv,2013-02-19 05:10:00,
2013-02-19 00:15:00,41.4,30.5,30.09,SSE,149,0.0,0.0,55,0.00,,,0.00,dv,2013-02-19 05:15:00,
2013-02-19 00:20:00,41.3,30.1,30.09,SSE,149,0.0,0.0,54,0.00,,,0.00,dv,2013-02-19 05:20:00,
2013-02-19 00:25:00,41.3,30.1,30.09,SSE,149,0.0,0.0,54,0.00,,,0.00,dv,2013-02-19 05:25:00,
2013-02-19 00:30:00,41.3,29.8,30.08,SSE,149,0.0,0.0,53,0.00,,,0.00,dv,2013-02-19 05:30:00,
2013-02-19 00:35:00,41.3,30.1,30.08,SSE,149,0.0,0.0,54,0.00,,,0.00,dv,2013-02-19 05:35:00,
2013-02-19 00:40:00,41.4,30.2,30.08,SSE,149,0.0,0.0,54,0.00,,,0.00,dv,2013-02-19 05:40:00,
2013-02-19 00:45:00,41.5,30.3,30.08,SSE,149,0.0,0.0,54,0.00,,,0.00,dv,2013-02-19 05:45:00,
2013-02-19 00:50:00,41.5,30.3,30.07,SSE,149,0.0,0.0,54,0.00,,,0.00,dv,2013-02-19 05:50:00,
2013-02-19 01:00:00,41.9,30.4,30.06,SE,126,1.6,1.6,53,0.00,,,0.00,dv,2013-02-19 06:00:00,
2013-02-19 01:05:00,42.1,30.2,30.06,SE,126,1.6,1.6,52,0.00,,,0.00,dv,2013-02-19 06:05:00,
2013-02-19 01:10:00,42.2,30.0,30.05,SE,126,0.0,0.0,51,0.00,,,0.00,dv,2013-02-19 06:10:00,
2013-02-19 01:15:00,42.3,30.0,30.05,SE,126,1.6,1.6,51,0.00,,,0.00,dv,2013-02-19 06:15:00,
2013-02-19 01:25:00,42.5,29.9,30.05,SE,126,3.2,3.2,50,0.00,,,0.00,dv,2013-02-19 06:25:00,
2013-02-19 01:30:00,42.7,29.7,30.05,East,82,3.2,3.2,49,0.00,,,0.00,dv,2013-02-19 06:30:00,
2013-02-19 01:35:00,42.9,29.9,30.05,ESE,113,1.6,1.6,49,0.00,,,0.00,dv,2013-02-19 06:35:00,
2013-02-19 01:45:00,43.1,29.7,30.03,ENE,61,1.6,1.6,48,0.00,,,0.00,dv,2013-02-19 06:45:00,
2013-02-19 01:50:00,43.1,29.7,30.03,ENE,65,3.2,3.2,48,0.00,,,0.00,dv,2013-02-19 06:50:00,
2013-02-19 01:55:00,43.1,29.7,30.04,ENE,65,3.2,3.2,48,0.00,,,0.00,dv,2013-02-19 06:55:00,
2013-02-19 02:00:00,43.2,29.4,30.02,ENE,65,1.6,1.6,47,0.00,,,0.00,dv,2013-02-19 07:00:00,
2013-02-19 02:05:00,43.2,29.8,30.02,South,176,1.6,1.6,48,0.00,,,0.00,dv,2013-02-19 07:05:00,
2013-02-19 02:10:00,43.2,30.2,30.02,ENE,68,1.6,1.6,49,0.00,,,0.00,dv,2013-02-19 07:10:00,
2013-02-19 02:15:00,43.1,29.7,30.02,ENE,69,4.8,4.8,48,0.00,,,0.00,dv,2013-02-19 07:15:00,
2013-02-19 02:20:00,43.1,30.1,30.02,ENE,68,1.6,1.6,49,0.00,,,0.00,dv,2013-02-19 07:20:00,
2013-02-19 02:25:00,43.0,30.0,30.02,SSW,200,4.8,4.8,49,0.00,,,0.00,dv,2013-02-19 07:25:00,
2013-02-19 02:30:00,43.0,30.0,30.04,ESE,109,3.2,3.2,49,0.00,,,0.00,dv,2013-02-19 07:30:00,
2013-02-19 02:35:00,43.0,30.3,30.04,ESE,109,1.6,1.6,50,0.00,,,0.00,dv,2013-02-19 07:35:00,
2013-02-19 02:40:00,42.9,29.9,30.04,East,90,3.2,3.2,49,0.00,,,0.00,dv,2013-02-19 07:40:00,
2013-02-19 02:45:00,43.0,30.3,30.04,East,90,0.0,0.0,50,0.00,,,0.00,dv,2013-02-19 07:45:00,
2013-02-19 02:50:00,42.9,30.3,30.03,East,81,3.2,3.2,50,0.00,,,0.00,dv,2013-02-19 07:50:00,
2013-02-19 02:55:00,42.9,30.3,30.02,East,81,1.6,1.6,50,0.00,,,0.00,dv,2013-02-19 07:55:00,
2013-02-19 03:00:00,42.9,30.3,30.02,ENE,66,4.8,4.8,50,0.00,,,0.00,dv,2013-02-19 08:00:00,
2013-02-19 03:05:00,42.9,30.3,30.01,East,83,3.2,3.2,50,0.00,,,0.00,dv,2013-02-19 08:05:00,
2013-02-19 03:10:00,42.8,30.2,30.02,NE,50,4.8,4.8,50,0.00,,,0.00,dv,2013-02-19 08:10:00,
2013-02-19 03:15:00,42.8,30.5,30.01,ENE,64,1.6,1.6,51,0.00,,,0.00,dv,2013-02-19 08:15:00,
2013-02-19 03:20:00,42.7,30.4,30.01,ENE,74,3.2,3.2,51,0.00,,,0.00,dv,2013-02-19 08:20:00,
2013-02-19 03:25:00,42.6,30.3,30.01,ENE,74,0.0,0.0,51,0.00,,,0.00,dv,2013-02-19 08:25:00,
2013-02-19 03:30:00,42.5,30.6,30.00,ENE,74,3.2,3.2,52,0.00,,,0.00,dv,2013-02-19 08:30:00,
2013-02-19 03:35:00,42.4,30.8,30.01,ESE,108,0.0,0.0,53,0.00,,,0.00,dv,2013-02-19 08:35:00,
2013-02-19 03:40:00,42.4,30.8,30.01,ESE,108,0.0,0.0,53,0.00,,,0.00,dv,2013-02-19 08:40:00,
2013-02-19 03:45:00,42.3,31.0,30.01,ESE,107,1.6,1.6,54,0.00,,,0.00,dv,2013-02-19 08:45:00,
2013-02-19 03:50:00,42.3,31.7,30.01,ESE,107,1.6,1.6,56,0.00,,,0.00,dv,2013-02-19 08:50:00,
2013-02-19 03:55:00,42.2,32.2,30.00,ESE,107,1.6,1.6,58,0.00,,,0.00,dv,2013-02-19 08:55:00,
2013-02-19 04:00:00,42.1,33.9,30.02,ESE,108,0.0,0.0,64,0.01,,,0.01,dv,2013-02-19 09:00:00,
2013-02-19 04:05:00,42.0,35.1,30.05,ESE,108,0.0,0.0,69,0.01,,,0.01,dv,2013-02-19 09:05:00,
2013-02-19 04:10:00,41.7,34.8,30.04,ESE,108,0.0,0.0,69,0.01,,,0.01,dv,2013-02-19 09:10:00,
2013-02-19 04:15:00,41.0,34.2,30.02,ESE,108,1.6,1.6,69,0.01,,,0.01,dv,2013-02-19 09:15:00,
2013-02-19 04:20:00,40.5,34.5,30.02,ESE,108,0.0,0.0,72,0.02,,,0.02,dv,2013-02-19 09:20:00,
2013-02-19 04:25:00,40.1,34.6,30.01,ESE,108,0.0,0.0,74,0.04,,,0.04,dv,2013-02-19 09:25:00,
2013-02-19 04:30:00,40.0,34.7,30.01,ESE,108,0.0,0.0,75,0.05,,,0.05,dv,2013-02-19 09:30:00,
2013-02-19 04:35:00,39.6,34.8,30.01,ESE,107,0.0,0.0,77,0.06,,,0.06,dv,2013-02-19 09:35:00,
2013-02-19 04:40:00,39.4,34.8,30.01,ESE,108,0.0,0.0,78,0.07,,,0.07,dv,2013-02-19 09:40:00,
2013-02-19 04:45:00,39.2,34.9,30.01,ESE,108,0.0,0.0,79,0.08,,,0.08,dv,2013-02-19 09:45:00,
2013-02-19 04:50:00,38.9,35.0,30.00,ESE,108,0.0,0.0,81,0.09,,,0.09,dv,2013-02-19 09:50:00,
2013-02-19 04:55:00,38.6,35.0,30.04,WSW,254,4.8,4.8,82,0.10,,,0.10,dv,2013-02-19 09:55:00,
2013-02-19 05:00:00,38.7,35.3,30.04,WSW,254,1.6,1.6,83,0.09,,,0.10,dv,2013-02-19 10:00:00,
2013-02-19 05:05:00,38.6,35.2,30.03,WSW,254,0.0,0.0,83,0.10,,,0.11,dv,2013-02-19 10:05:00,
2013-02-19 05:10:00,38.4,35.0,30.02,WSW,254,0.0,0.0,83,0.11,,,0.12,dv,2013-02-19 10:10:00,
2013-02-19 05:15:00,38.1,34.9,30.01,WSW,255,0.0,0.0,84,0.11,,,0.12,dv,2013-02-19 10:15:00,
2013-02-19 05:20:00,38.1,34.9,30.01,WSW,254,0.0,0.0,84,0.11,,,0.13,dv,2013-02-19 10:20:00,
2013-02-19 05:25:00,38.0,35.0,30.00,WSW,254,0.0,0.0,85,0.09,,,0.13,dv,2013-02-19 10:25:00,
2013-02-19 05:30:00,37.9,34.9,30.00,WSW,254,0.0,0.0,85,0.09,,,0.14,dv,2013-02-19 10:30:00,
2013-02-19 05:35:00,37.9,34.9,30.01,WSW,254,0.0,0.0,85,0.08,,,0.14,dv,2013-02-19 10:35:00,
2013-02-19 05:40:00,37.9,35.2,30.02,WSW,254,0.0,0.0,86,0.08,,,0.15,dv,2013-02-19 10:40:00,
2013-02-19 05:50:00,38.0,35.5,30.02,WSW,255,0.0,0.0,87,0.07,,,0.16,dv,2013-02-19 10:50:00,
2013-02-19 05:55:00,38.0,35.5,30.02,East,92,1.6,1.6,87,0.07,,,0.17,dv,2013-02-19 10:55:00,
2013-02-19 06:00:00,38.0,35.5,30.01,East,92,1.6,1.6,87,0.08,,,0.18,dv,2013-02-19 11:00:00,
2013-02-19 06:05:00,37.9,35.4,30.01,East,91,0.0,0.0,87,0.09,,,0.20,dv,2013-02-19 11:05:00,
2013-02-19 06:10:00,37.8,35.3,30.00,East,92,0.0,0.0,87,0.10,,,0.22,dv,2013-02-19 11:10:00,
2013-02-19 06:15:00,37.9,35.6,30.04,WNW,286,4.8,4.8,88,0.11,,,0.23,dv,2013-02-19 11:15:00,
2013-02-19 06:20:00,37.8,35.5,30.03,WNW,286,0.0,0.0,88,0.11,,,0.24,dv,2013-02-19 11:20:00,
2013-02-19 06:25:00,37.9,35.6,30.03,WNW,286,0.0,0.0,88,0.12,,,0.25,dv,2013-02-19 11:25:00,
2013-02-19 06:30:00,37.7,35.4,30.02,WNW,286,0.0,0.0,88,0.12,,,0.26,dv,2013-02-19 11:30:00,
2013-02-19 06:35:00,37.6,35.3,30.02,WNW,286,0.0,0.0,88,0.12,,,0.26,dv,2013-02-19 11:35:00,
2013-02-19 06:40:00,37.6,35.3,30.02,WNW,286,1.6,1.6,88,0.11,,,0.26,dv,2013-02-19 11:40:00,
2013-02-19 06:50:00,37.5,35.2,30.02,WNW,286,1.6,1.6,88,0.11,,,0.27,dv,2013-02-19 11:50:00,
2013-02-19 06:55:00,37.4,35.1,30.01,WNW,286,0.0,0.0,88,0.10,,,0.27,dv,2013-02-19 11:55:00,
2013-02-19 07:00:00,37.3,35.0,30.02,WNW,286,0.0,0.0,88,0.09,,,0.27,dv,2013-02-19 12:00:00,
2013-02-19 07:05:00,37.2,34.9,30.00,WNW,286,0.0,0.0,88,0.07,,,0.27,dv,2013-02-19 12:05:00,
2013-02-19 07:10:00,37.1,34.8,30.00,WNW,286,0.0,0.0,88,0.05,,,0.27,dv,2013-02-19 12:10:00,
2013-02-19 07:15:00,37.1,35.0,30.00,WNW,286,0.0,0.0,89,0.05,,,0.28,dv,2013-02-19 12:15:00,
2013-02-19 07:20:00,37.1,35.0,29.99,WNW,286,0.0,0.0,89,0.04,,,0.28,dv,2013-02-19 12:20:00,
2013-02-19 07:25:00,37.1,35.0,29.98,WNW,286,0.0,0.0,89,0.03,,,0.28,dv,2013-02-19 12:25:00,
2013-02-19 07:30:00,37.1,35.0,29.97,WNW,286,1.6,1.6,89,0.03,,,0.29,dv,2013-02-19 12:30:00,
2013-02-19 07:35:00,37.2,35.3,29.97,WNW,286,1.6,1.6,90,0.03,,,0.29,dv,2013-02-19 12:35:00,
2013-02-19 07:45:00,37.2,35.3,29.99,WNW,286,1.6,1.6,90,0.02,,,0.29,dv,2013-02-19 12:45:00,
2013-02-19 07:50:00,37.4,35.5,29.99,WNW,286,1.6,1.6,90,0.02,,,0.29,dv,2013-02-19 12:50:00,
2013-02-19 07:55:00,37.3,35.4,29.99,WNW,286,1.6,1.6,90,0.02,,,0.29,dv,2013-02-19 12:55:00,
2013-02-19 08:00:00,37.3,35.4,29.99,WNW,286,1.6,1.6,90,0.02,,,0.29,dv,2013-02-19 13:00:00,
2013-02-19 08:05:00,37.3,35.6,29.98,WNW,286,1.6,1.6,91,0.02,,,0.29,dv,2013-02-19 13:05:00,
2013-02-19 08:15:00,37.4,35.7,29.98,NNW,335,0.0,0.0,91,0.01,,,0.29,dv,2013-02-19 13:15:00,
2013-02-19 08:20:00,37.5,35.8,29.99,NNW,335,1.6,1.6,91,0.01,,,0.29,dv,2013-02-19 13:20:00,
2013-02-19 08:25:00,37.5,35.8,29.99,NNW,345,1.6,1.6,91,0.01,,,0.29,dv,2013-02-19 13:25:00,
2013-02-19 08:30:00,37.5,35.8,29.98,NNW,345,1.6,1.6,91,0.00,,,0.29,dv,2013-02-19 13:30:00,
2013-02-19 08:35:00,37.5,35.8,29.98,NNW,345,1.6,1.6,91,0.00,,,0.29,dv,2013-02-19 13:35:00,
2013-02-19 08:40:00,37.6,35.9,29.98,NNW,345,0.0,0.0,91,0.00,,,0.29,dv,2013-02-19 13:40:00,
2013-02-19 08:45:00,37.6,35.9,29.99,North,5,1.6,1.6,91,0.00,,,0.29,dv,2013-02-19 13:45:00,
2013-02-19 08:50:00,37.6,35.9,29.99,North,5,1.6,1.6,91,0.00,,,0.29,dv,2013-02-19 13:50:00,
2013-02-19 08:55:00,37.5,35.8,29.99,North,5,1.6,1.6,91,0.00,,,0.29,dv,2013-02-19 13:55:00,
2013-02-19 09:00:00,37.6,35.9,29.99,North,5,1.6,1.6,91,0.00,,,0.29,dv,2013-02-19 14:00:00,
2013-02-19 09:05:00,37.6,35.9,29.99,North,5,0.0,0.0,91,0.00,,,0.29,dv,2013-02-19 14:05:00,
2013-02-19 09:10:00,37.7,36.0,29.99,North,5,0.0,0.0,91,0.00,,,0.29,dv,2013-02-19 14:10:00,
2013-02-19 09:15:00,37.7,36.0,29.99,North,6,0.0,0.0,91,0.00,,,0.29,dv,2013-02-19 14:15:00,
2013-02-19 09:20:00,37.8,36.1,29.99,North,5,0.0,0.0,91,0.00,,,0.29,dv,2013-02-19 14:20:00,
2013-02-19 09:25:00,37.8,36.1,29.99,North,5,0.0,0.0,91,0.00,,,0.29,dv,2013-02-19 14:25:00,
2013-02-19 09:30:00,37.9,36.4,29.99,North,6,0.0,0.0,92,0.00,,,0.29,dv,2013-02-19 14:30:00,
2013-02-19 09:35:00,37.9,36.4,29.99,North,5,0.0,0.0,92,0.00,,,0.29,dv,2013-02-19 14:35:00,
2013-02-19 09:40:00,37.9,36.2,29.99,North,5,0.0,0.0,91,0.00,,,0.29,dv,2013-02-19 14:40:00,
2013-02-19 09:45:00,38.0,36.3,29.99,North,5,1.6,1.6,91,0.00,,,0.29,dv,2013-02-19 14:45:00,
2013-02-19 09:50:00,37.9,36.4,29.99,North,5,0.0,0.0,92,0.00,,,0.29,dv,2013-02-19 14:50:00,
2013-02-19 09:55:00,38.0,36.3,29.99,North,5,1.6,1.6,91,0.00,,,0.29,dv,2013-02-19 14:55:00,
2013-02-19 10:00:00,37.9,36.2,29.99,North,2,0.0,0.0,91,0.00,,,0.29,dv,2013-02-19 15:00:00,
2013-02-19 10:05:00,38.0,36.3,29.99,North,2,1.6,1.6,91,0.00,,,0.29,dv,2013-02-19 15:05:00,
2013-02-19 10:10:00,38.1,36.4,29.99,North,2,1.6,1.6,91,0.00,,,0.29,dv,2013-02-19 15:10:00,
2013-02-19 10:15:00,38.2,36.7,29.99,North,2,0.0,0.0,92,0.00,,,0.29,dv,2013-02-19 15:15:00,
2013-02-19 10:20:00,38.2,36.7,29.99,North,2,0.0,0.0,92,0.00,,,0.29,dv,2013-02-19 15:20:00,
2013-02-19 10:25:00,38.3,36.8,29.99,North,2,0.0,0.0,92,0.00,,,0.29,dv,2013-02-19 15:25:00,
2013-02-19 10:35:00,38.3,36.8,29.99,North,2,0.0,0.0,92,0.00,,,0.29,dv,2013-02-19 15:35:00,
2013-02-19 10:40:00,38.4,36.9,30.00,North,2,0.0,0.0,92,0.00,,,0.29,dv,2013-02-19 15:40:00,
2013-02-19 10:45:00,38.4,36.9,30.00,North,2,0.0,0.0,92,0.00,,,0.29,dv,2013-02-19 15:45:00,
2013-02-19 10:50:00,38.5,37.0,29.99,North,2,1.6,1.6,92,0.00,,,0.29,dv,2013-02-19 15:50:00,
2013-02-19 10:55:00,38.6,37.1,29.99,North,2,0.0,0.0,92,0.00,,,0.29,dv,2013-02-19 15:55:00,
2013-02-19 11:00:00,38.5,37.0,29.99,North,2,1.6,1.6,92,0.00,,,0.29,dv,2013-02-19 16:00:00,
2013-02-19 11:05:00,38.6,37.1,29.99,North,2,1.6,1.6,92,0.00,,,0.29,dv,2013-02-19 16:05:00,
2013-02-19 11:10:00,38.7,37.2,29.99,North,2,0.0,0.0,92,0.00,,,0.29,dv,2013-02-19 16:10:00,
2013-02-19 11:15:00,38.7,37.2,29.99,North,2,0.0,0.0,92,0.00,,,0.29,dv,2013-02-19 16:15:00,
2013-02-19 11:20:00,38.8,37.3,29.99,North,2,0.0,0.0,92,0.00,,,0.29,dv,2013-02-19 16:20:00,
2013-02-19 11:25:00,38.9,37.4,29.99,North,2,0.0,0.0,92,0.00,,,0.29,dv,2013-02-19 16:25:00,
2013-02-19 11:30:00,39.1,37.6,29.99,North,2,0.0,0.0,92,0.00,,,0.29,dv,2013-02-19 16:30:00,
2013-02-19 11:35:00,39.2,37.7,29.99,North,2,1.6,1.6,92,0.00,,,0.29,dv,2013-02-19 16:35:00,
2013-02-19 11:40:00,39.2,37.7,29.99,North,2,1.6,1.6,92,0.00,,,0.29,dv,2013-02-19 16:40:00,
2013-02-19 11:45:00,39.2,37.7,29.99,North,2,0.0,0.0,92,0.00,,,0.29,dv,2013-02-19 16:45:00,
2013-02-19 11:50:00,39.3,37.8,29.99,North,2,1.6,1.6,92,0.00,,,0.29,dv,2013-02-19 16:50:00,
2013-02-19 11:55:00,39.3,37.8,29.98,North,2,1.6,1.6,92,0.00,,,0.29,dv,2013-02-19 16:55:00,
2013-02-19 12:00:00,39.3,37.8,29.98,North,2,1.6,1.6,92,0.00,,,0.29,dv,2013-02-19 17:00:00,
2013-02-19 12:05:00,39.3,37.8,29.98,ENE,67,1.6,1.6,92,0.00,,,0.29,dv,2013-02-19 17:05:00,
2013-02-19 12:10:00,39.2,37.7,29.99,ENE,64,4.8,4.8,92,0.00,,,0.29,dv,2013-02-19 17:10:00,
2013-02-19 12:15:00,39.4,37.9,29.98,WSW,255,4.8,4.8,92,0.00,,,0.29,dv,2013-02-19 17:15:00,
2013-02-19 12:20:00,39.7,38.4,29.99,East,98,1.6,1.6,93,0.00,,,0.29,dv,2013-02-19 17:20:00,
2013-02-19 12:25:00,39.9,38.6,29.98,SSE,156,1.6,1.6,93,0.00,,,0.29,dv,2013-02-19 17:25:00,
2013-02-19 12:30:00,40.2,38.9,29.98,WSW,240,3.2,3.2,93,0.00,,,0.29,dv,2013-02-19 17:30:00,
2013-02-19 12:35:00,40.4,39.0,29.98,WSW,240,3.2,3.2,93,0.00,,,0.29,dv,2013-02-19 17:35:00,
2013-02-19 12:40:00,40.7,39.3,29.97,WSW,240,3.2,3.2,93,0.00,,,0.29,dv,2013-02-19 17:40:00,
2013-02-19 12:45:00,41.1,39.7,29.97,WSW,240,4.8,4.8,93,0.00,,,0.29,dv,2013-02-19 17:45:00,
2013-02-19 12:50:00,41.4,40.0,29.97,SW,219,4.8,4.8,93,0.00,,,0.29,dv,2013-02-19 17:50:00,
2013-02-19 12:55:00,41.6,40.2,29.97,WSW,239,4.8,4.8,93,0.00,,,0.29,dv,2013-02-19 17:55:00,
2013-02-19 13:00:00,41.7,40.3,29.97,West,266,6.4,6.4,93,0.00,,,0.29,dv,2013-02-19 18:00:00,
2013-02-19 13:05:00,41.7,40.3,29.97,West,264,3.2,3.2,93,0.00,,,0.29,dv,2013-02-19 18:05:00,
2013-02-19 13:10:00,41.9,40.5,29.96,West,268,4.8,4.8,93,0.00,,,0.29,dv,2013-02-19 18:10:00,
2013-02-19 13:15:00,42.3,41.1,29.96,SW,236,3.2,3.2,94,0.00,,,0.29,dv,2013-02-19 18:15:00,
2013-02-19 13:20:00,42.7,41.5,29.96,WSW,241,9.7,9.7,94,0.00,,,0.29,dv,2013-02-19 18:20:00,
2013-02-19 13:25:00,43.1,41.9,29.96,SSW,196,9.7,9.7,94,0.00,,,0.29,dv,2013-02-19 18:25:00,
2013-02-19 13:30:00,43.5,42.3,29.95,WNW,287,9.7,9.7,94,0.00,,,0.29,dv,2013-02-19 18:30:00,
2013-02-19 13:35:00,43.9,42.7,29.94,SSE,168,12.9,12.9,94,0.00,,,0.29,dv,2013-02-19 18:35:00,
2013-02-19 13:40:00,44.3,43.1,29.95,SW,230,9.7,9.7,94,0.00,,,0.29,dv,2013-02-19 18:40:00,
2013-02-19 13:45:00,44.6,43.4,29.94,WSW,240,12.9,12.9,94,0.00,,,0.29,dv,2013-02-19 18:45:00,
2013-02-19 13:50:00,44.8,43.2,29.95,WSW,237,17.7,17.7,92,0.00,,,0.29,dv,2013-02-19 18:50:00,
2013-02-19 13:55:00,45.2,43.6,29.94,SW,226,12.9,12.9,92,0.00,,,0.29,dv,2013-02-19 18:55:00,
2013-02-19 14:00:00,45.5,44.1,29.94,WSW,243,9.7,9.7,93,0.00,,,0.29,dv,2013-02-19 19:00:00,
2013-02-19 14:05:00,45.7,43.9,29.93,South,174,9.7,9.7,91,0.00,,,0.29,dv,2013-02-19 19:05:00,
2013-02-19 14:10:00,46.0,44.0,29.93,WSW,252,11.3,11.3,90,0.00,,,0.29,dv,2013-02-19 19:10:00,
2013-02-19 14:15:00,46.3,44.0,29.92,West,274,9.7,9.7,89,0.00,,,0.29,dv,2013-02-19 19:15:00,
2013-02-19 14:20:00,46.7,44.4,29.93,WNW,284,8.1,8.1,89,0.00,,,0.29,dv,2013-02-19 19:20:00,
2013-02-19 14:25:00,47.0,44.5,29.92,WSW,247,14.5,14.5,88,0.00,,,0.29,dv,2013-02-19 19:25:00,
2013-02-19 14:30:00,47.3,43.9,29.92,WNW,295,14.5,14.5,84,0.00,,,0.29,dv,2013-02-19 19:30:00,
2013-02-19 14:35:00,47.8,44.2,29.92,SW,227,17.7,17.7,83,0.00,,,0.29,dv,2013-02-19 19:35:00,
2013-02-19 14:40:00,48.1,43.8,29.92,WNW,296,8.1,8.1,80,0.00,,,0.29,dv,2013-02-19 19:40:00,
2013-02-19 14:45:00,48.2,43.4,29.92,South,187,8.1,8.1,78,0.00,,,0.29,dv,2013-02-19 19:45:00,
2013-02-19 14:50:00,48.3,43.5,29.92,West,277,16.1,16.1,78,0.00,,,0.29,dv,2013-02-19 19:50:00,
2013-02-19 14:55:00,48.4,43.6,29.92,SSW,209,12.9,12.9,78,0.00,,,0.29,dv,2013-02-19 19:55:00,
2013-02-19 15:00:00,48.8,42.9,29.92,SSW,194,12.9,12.9,74,0.00,,,0.29,dv,2013-02-19 20:00:00,
2013-02-19 15:05:00,49.2,43.6,29.91,SW,236,17.7,17.7,75,0.00,,,0.29,dv,2013-02-19 20:05:00,
2013-02-19 15:10:00,49.4,43.5,29.92,WSW,239,19.3,19.3,74,0.00,,,0.29,dv,2013-02-19 20:10:00,
2013-02-19 15:15:00,49.7,43.0,29.91,WSW,257,16.1,16.1,71,0.00,,,0.29,dv,2013-02-19 20:15:00,
2013-02-19 15:20:00,50.2,43.5,29.91,North,356,12.9,12.9,71,0.00,,,0.29,dv,2013-02-19 20:20:00,
2013-02-19 15:25:00,50.6,43.9,29.91,WSW,249,17.7,17.7,71,0.00,,,0.29,dv,2013-02-19 20:25:00,
2013-02-19 15:30:00,50.5,43.2,29.91,WSW,255,19.3,19.3,69,0.00,,,0.29,dv,2013-02-19 20:30:00,
2013-02-19 15:35:00,50.3,42.8,29.92,West,280,16.1,16.1,68,0.00,,,0.29,dv,2013-02-19 20:35:00,
2013-02-19 15:40:00,50.2,42.7,29.92,WSW,250,19.3,19.3,68,0.00,,,0.29,dv,2013-02-19 20:40:00,
2013-02-19 15:45:00,50.1,42.3,29.92,South,184,24.1,24.1,67,0.00,,,0.29,dv,2013-02-19 20:45:00,
2013-02-19 15:50:00,50.3,41.3,29.92,WNW,286,9.7,9.7,63,0.00,,,0.29,dv,2013-02-19 20:50:00,
2013-02-19 15:55:00,50.7,42.0,29.92,SSW,207,17.7,17.7,64,0.00,,,0.29,dv,2013-02-19 20:55:00,
2013-02-19 16:00:00,51.0,41.3,29.92,NNW,340,19.3,19.3,61,0.00,,,0.29,dv,2013-02-19 21:00:00,
2013-02-19 16:10:00,50.9,40.3,29.92,West,279,38.6,38.6,58,0.00,,,0.29,dv,2013-02-19 21:10:00,
2013-02-19 16:15:00,51.0,39.1,29.93,WNW,295,27.4,27.4,54,0.00,,,0.29,dv,2013-02-19 21:15:00,
2013-02-19 16:20:00,51.1,40.2,29.92,SE,139,16.1,16.1,57,0.00,,,0.29,dv,2013-02-19 21:20:00,
2013-02-19 16:25:00,51.2,39.6,29.93,East,81,14.5,14.5,55,0.00,,,0.29,dv,2013-02-19 21:25:00,
2013-02-19 16:30:00,51.2,38.5,29.93,WNW,301,22.5,22.5,52,0.00,,,0.29,dv,2013-02-19 21:30:00,
2013-02-19 16:40:00,50.9,37.9,29.94,WNW,292,27.4,27.4,51,0.00,,,0.29,dv,2013-02-19 21:40:00,
2013-02-19 16:45:00,50.6,38.0,29.93,NNW,327,25.7,25.7,52,0.00,,,0.29,dv,2013-02-19 21:45:00,
2013-02-19 16:55:00,50.3,37.0,29.94,WNW,286,22.5,22.5,50,0.00,,,0.29,dv,2013-02-19 21:55:00,
2013-02-19 17:00:00,50.2,37.3,29.93,WSW,253,19.3,19.3,51,0.00,,,0.29,dv,2013-02-19 22:00:00,
2013-02-19 17:05:00,50.2,38.3,29.94,WSW,249,16.1,16.1,54,0.00,,,0.29,dv,2013-02-19 22:05:00,
2013-02-19 17:10:00,50.0,36.0,29.94,NNW,332,19.3,19.3,48,0.00,,,0.29,dv,2013-02-19 22:10:00,
2013-02-19 17:15:00,50.1,36.8,29.94,NW,315,11.3,11.3,50,0.00,,,0.29,dv,2013-02-19 22:15:00,
2013-02-19 17:20:00,50.0,36.4,29.94,WSW,247,16.1,16.1,49,0.00,,,0.29,dv,2013-02-19 22:20:00,
2013-02-19 17:25:00,50.1,36.1,29.94,NNW,342,14.5,14.5,48,0.00,,,0.29,dv,2013-02-19 22:25:00,
2013-02-19 17:30:00,49.9,35.9,29.94,WSW,243,16.1,16.1,48,0.00,,,0.29,dv,2013-02-19 22:30:00,
2013-02-19 17:35:00,49.6,36.4,29.94,WSW,257,19.3,19.3,50,0.00,,,0.29,dv,2013-02-19 22:35:00,
2013-02-19 17:40:00,49.4,35.8,29.94,WNW,294,14.5,14.5,49,0.00,,,0.29,dv,2013-02-19 22:40:00,
2013-02-19 17:45:00,49.1,35.2,29.95,SSW,193,17.7,17.7,48,0.00,,,0.29,dv,2013-02-19 22:45:00,
2013-02-19 17:50:00,49.1,35.5,29.95,WSW,253,16.1,16.1,49,0.00,,,0.29,dv,2013-02-19 22:50:00,
2013-02-19 17:55:00,49.0,35.1,29.96,NW,304,16.1,16.1,48,0.00,,,0.29,dv,2013-02-19 22:55:00,
2013-02-19 18:00:00,48.8,34.9,29.96,West,275,12.9,12.9,48,0.00,,,0.29,dv,2013-02-19 23:00:00,
2013-02-19 18:05:00,48.5,34.2,29.96,WNW,296,16.1,16.1,47,0.00,,,0.29,dv,2013-02-19 23:05:00,
2013-02-19 18:10:00,48.5,34.2,29.96,NW,305,12.9,12.9,47,0.00,,,0.29,dv,2013-02-19 23:10:00,
2013-02-19 18:15:00,48.4,34.5,29.96,WNW,293,8.1,8.1,48,0.00,,,0.29,dv,2013-02-19 23:15:00,
2013-02-19 18:20:00,48.2,34.4,29.96,WSW,244,19.3,19.3,48,0.00,,,0.29,dv,2013-02-19 23:20:00,
2013-02-19 18:25:00,47.9,33.7,29.97,WSW,238,9.7,9.7,47,0.00,,,0.29,dv,2013-02-19 23:25:00,
2013-02-19 18:30:00,47.7,33.9,29.97,WNW,301,8.1,8.1,48,0.00,,,0.29,dv,2013-02-19 23:30:00,
2013-02-19 18:35:00,47.3,33.5,29.97,WSW,256,6.4,6.4,48,0.00,,,0.29,dv,2013-02-19 23:35:00,
2013-02-19 18:40:00,47.0,31.3,29.98,WSW,251,9.7,9.7,43,0.00,,,0.29,dv,2013-02-19 23:40:00,
2013-02-19 18:45:00,46.8,31.9,29.97,WSW,251,24.1,24.1,45,0.00,,,0.29,dv,2013-02-19 23:45:00,
2013-02-19 18:55:00,46.7,28.4,29.98,ENE,70,14.5,14.5,37,0.00,,,0.29,dv,2013-02-19 23:55:00,
2013-02-19 19:00:00,46.6,28.3,29.98,NNW,336,22.5,22.5,37,0.00,,,0.29,dv,2013-02-20 00:00:00,
2013-02-19 19:05:00,46.5,28.3,29.99,WNW,285,6.4,6.4,37,0.00,,,0.29,dv,2013-02-20 00:05:00,
2013-02-19 19:10:00,46.3,27.6,29.99,West,262,17.7,17.7,36,0.00,,,0.29,dv,2013-02-20 00:10:00,
2013-02-19 19:15:00,46.2,28.5,30.00,West,269,14.5,14.5,38,0.00,,,0.29,dv,2013-02-20 00:15:00,
2013-02-19 19:20:00,46.0,28.3,29.99,West,260,14.5,14.5,38,0.00,,,0.29,dv,2013-02-20 00:20:00,
2013-02-19 19:25:00,45.9,27.3,30.00,West,277,14.5,14.5,36,0.00,,,0.29,dv,2013-02-20 00:25:00,
2013-02-19 19:30:00,45.8,27.2,30.00,NE,40,12.9,12.9,36,0.00,,,0.29,dv,2013-02-20 00:30:00,
2013-02-19 19:35:00,45.7,28.0,30.01,West,262,9.7,9.7,38,0.00,,,0.29,dv,2013-02-20 00:35:00,
2013-02-19 19:40:00,45.4,27.3,30.00,West,277,17.7,17.7,37,0.00,,,0.29,dv,2013-02-20 00:40:00,
2013-02-19 19:45:00,45.3,27.2,30.01,West,267,12.9,12.9,37,0.00,,,0.29,dv,2013-02-20 00:45:00,
2013-02-19 19:50:00,45.1,27.5,30.01,West,270,9.7,9.7,38,0.00,,,0.29,dv,2013-02-20 00:50:00,
2013-02-19 19:55:00,44.9,27.3,30.00,West,265,9.7,9.7,38,0.00,,,0.29,dv,2013-02-20 00:55:00,
2013-02-19 20:00:00,44.6,28.3,30.00,WNW,284,9.7,9.7,41,0.00,,,0.29,dv,2013-02-20 01:00:00,
2013-02-19 20:05:00,44.3,26.3,30.01,NNW,338,14.5,14.5,37,0.00,,,0.29,dv,2013-02-20 01:05:00,
2013-02-19 20:10:00,44.2,27.6,30.01,West,259,14.5,14.5,40,0.00,,,0.29,dv,2013-02-20 01:10:00,
2013-02-19 20:15:00,44.0,27.4,30.01,WSW,248,16.1,16.1,40,0.00,,,0.29,dv,2013-02-20 01:15:00,
2013-02-19 20:20:00,43.7,27.5,30.00,West,267,12.9,12.9,41,0.00,,,0.29,dv,2013-02-20 01:20:00,
2013-02-19 20:25:00,43.6,27.0,30.00,West,276,17.7,17.7,40,0.00,,,0.29,dv,2013-02-20 01:25:00,
2013-02-19 20:30:00,43.5,26.1,30.01,WSW,248,11.3,11.3,38,0.00,,,0.29,dv,2013-02-20 01:30:00,
2013-02-19 20:35:00,43.4,28.1,30.01,WSW,243,16.1,16.1,43,0.00,,,0.29,dv,2013-02-20 01:35:00,
2013-02-19 20:40:00,43.2,27.1,30.01,SW,232,11.3,11.3,41,0.00,,,0.29,dv,2013-02-20 01:40:00,
2013-02-19 20:45:00,43.1,26.6,30.01,WNW,301,11.3,11.3,40,0.00,,,0.29,dv,2013-02-20 01:45:00,
2013-02-19 20:50:00,43.0,26.1,30.01,West,280,11.3,11.3,39,0.00,,,0.29,dv,2013-02-20 01:50:00,
2013-02-19 20:55:00,42.9,26.8,30.01,West,267,12.9,12.9,41,0.00,,,0.29,dv,2013-02-20 01:55:00,
2013-02-19 21:00:00,42.7,26.7,30.01,West,269,8.1,8.1,41,0.00,,,0.29,dv,2013-02-20 02:00:00,
2013-02-19 21:05:00,42.6,26.6,30.01,WSW,244,11.3,11.3,41,0.00,,,0.29,dv,2013-02-20 02:05:00,
2013-02-19 21:10:00,42.5,25.2,30.02,North,356,6.4,6.4,38,0.00,,,0.29,dv,2013-02-20 02:10:00,
2013-02-19 21:20:00,42.3,25.0,30.02,NNE,12,4.8,4.8,38,0.00,,,0.29,dv,2013-02-20 02:20:00,
2013-02-19 21:25:00,42.3,24.6,30.02,WNW,283,9.7,9.7,37,0.00,,,0.29,dv,2013-02-20 02:25:00,
2013-02-19 21:30:00,42.1,24.4,30.03,NW,306,8.1,8.1,37,0.00,,,0.29,dv,2013-02-20 02:30:00,
2013-02-19 21:35:00,41.9,25.1,30.03,South,179,6.4,6.4,39,0.00,,,0.29,dv,2013-02-20 02:35:00,
2013-02-19 21:40:00,41.7,25.4,30.03,WSW,243,9.7,9.7,40,0.00,,,0.29,dv,2013-02-20 02:40:00,
2013-02-19 21:45:00,41.4,25.5,30.03,WSW,254,9.7,9.7,41,0.00,,,0.29,dv,2013-02-20 02:45:00,
2013-02-19 21:50:00,41.2,25.3,30.04,WNW,287,11.3,11.3,41,0.00,,,0.29,dv,2013-02-20 02:50:00,
2013-02-19 21:55:00,41.1,24.4,30.03,West,274,12.9,12.9,39,0.00,,,0.29,dv,2013-02-20 02:55:00,
2013-02-19 22:00:00,41.0,24.3,30.03,WNW,282,12.9,12.9,39,0.00,,,0.29,dv,2013-02-20 03:00:00,
2013-02-19 22:05:00,41.0,24.7,30.03,WSW,240,17.7,17.7,40,0.00,,,0.29,dv,2013-02-20 03:05:00,
2013-02-19 22:10:00,40.9,25.1,30.03,WSW,256,12.9,12.9,41,0.00,,,0.29,dv,2013-02-20 03:10:00,
2013-02-19 22:15:00,40.8,24.6,30.03,WSW,258,12.9,12.9,40,0.00,,,0.29,dv,2013-02-20 03:15:00,
2013-02-19 22:20:00,40.7,24.0,30.03,NW,305,12.9,12.9,39,0.00,,,0.29,dv,2013-02-20 03:20:00,
2013-02-19 22:25:00,40.6,24.0,30.03,WSW,250,11.3,11.3,39,0.00,,,0.29,dv,2013-02-20 03:25:00,
2013-02-19 22:30:00,40.5,23.9,30.04,WSW,253,12.9,12.9,39,0.00,,,0.29,dv,2013-02-20 03:30:00,
2013-02-19 22:35:00,40.4,24.2,30.04,WSW,255,8.1,8.1,40,0.00,,,0.29,dv,2013-02-20 03:35:00,
2013-02-19 22:40:00,40.3,23.7,30.03,West,261,9.7,9.7,39,0.00,,,0.29,dv,2013-02-20 03:40:00,
2013-02-19 22:45:00,40.1,24.3,30.04,WSW,247,8.1,8.1,41,0.00,,,0.29,dv,2013-02-20 03:45:00,
2013-02-19 22:50:00,40.0,23.4,30.04,South,187,9.7,9.7,39,0.00,,,0.29,dv,2013-02-20 03:50:00,
2013-02-19 22:55:00,40.0,23.0,30.04,West,262,8.1,8.1,38,0.00,,,0.29,dv,2013-02-20 03:55:00,
2013-02-19 23:00:00,39.9,23.8,30.05,West,270,9.7,9.7,40,0.00,,,0.29,dv,2013-02-20 04:00:00,
2013-02-19 23:05:00,39.7,22.7,30.05,WSW,258,6.4,6.4,38,0.00,,,0.29,dv,2013-02-20 04:05:00,
2013-02-19 23:10:00,39.6,23.1,30.06,WNW,283,9.7,9.7,39,0.00,,,0.29,dv,2013-02-20 04:10:00,
2013-02-19 23:15:00,39.4,23.3,30.06,West,270,11.3,11.3,40,0.00,,,0.29,dv,2013-02-20 04:15:00,
2013-02-19 23:20:00,39.3,23.6,30.06,West,274,8.1,8.1,41,0.00,,,0.29,dv,2013-02-20 04:20:00,
2013-02-19 23:25:00,39.0,23.8,30.06,WNW,284,8.1,8.1,42,0.00,,,0.29,dv,2013-02-20 04:25:00,
2013-02-19 23:30:00,38.9,22.4,30.06,NNW,327,12.9,12.9,39,0.00,,,0.29,dv,2013-02-20 04:30:00,
2013-02-19 23:35:00,38.9,22.9,30.06,West,275,11.3,11.3,40,0.00,,,0.29,dv,2013-02-20 04:35:00,
2013-02-19 23:40:00,38.8,23.2,30.06,West,277,9.7,9.7,41,0.00,,,0.29,dv,2013-02-20 04:40:00,
2013-02-19 23:45:00,38.7,22.7,30.06,WSW,245,6.4,6.4,40,0.00,,,0.29,dv,2013-02-20 04:45:00,
2013-02-19 23:50:00,38.6,23.0,30.06,WSW,253,9.7,9.7,41,0.00,,,0.29,dv,2013-02-20 04:50:00,
2013-02-19 23:55:00,38.5,23.7,30.06,West,270,14.5,14.5,43,0.00,,,0.29,dv,2013-02-20 04:55:00,